Time;durP1;ratioP1;P1;durP2;ratioP2;P2;SDS_P1;SDS_P2;PMS_P1;PMS_P2;Temp;Humidity;BMP_temperature;BMP_pressure;BME280_temperature;BME280_humidity;BME280_pressure;Samples;Min_cycle;Max_cycle;Signal;HPM_P1;HPM_P2
2023/05/08 05:47:52;;;;;;;3.95;0.90;;;;;;;;;;6176679;22;20084;-80
2023/05/08 05:50:49;;;;;;;4.10;1.00;;;;;;;;;;6154701;23;20051;-81
2023/05/08 05:53:29;;;;;;;4.90;1.17;;;;;;;;;;6020185;23;20552;-81
2023/05/08 05:56:24;;;;;;;3.22;0.70;;;;;;;;;;6178701;23;20105;-81
2023/05/08 05:59:30;;;;;;;3.78;1.40;;;;;;;;;;6208743;23;20035;-80
2023/05/08 06:02:09;;;;;;;6.97;1.42;;;;;;;;;;6209844;23;20715;-81
2023/05/08 06:07:57;;;;;;;5.43;1.15;;;;;;;;;;6204509;23;20107;-81
2023/05/08 06:13:33;;;;;;;6.07;1.20;;;;;;;;;;6209880;23;20039;-81
2023/05/08 06:19:19;;;;;;;3.03;0.80;;;;;;;;;;6152502;23;20059;-81
2023/05/08 06:22:05;;;;;;;5.00;0.82;;;;;;;;;;6211358;23;20027;-80
2023/05/08 06:24:34;;;;;;;5.90;0.80;;;;;;;;;;6147012;23;20570;-81
2023/05/08 06:27:09;;;;;;;1.98;0.70;;;;;;;;;;6147461;23;20010;-81
2023/05/08 06:29:35;;;;;;;1.20;0.45;;;;;;;;;;6147328;23;20078;-80
2023/05/08 06:32:01;;;;;;;1.60;0.55;;;;;;;;;;6147604;23;20102;-81
2023/05/08 06:34:27;;;;;;;2.35;0.77;;;;;;;;;;6147226;23;20017;-81
2023/05/08 06:36:53;;;;;;;2.70;0.63;;;;;;;;;;6123505;23;20018;-81
2023/05/08 06:39:19;;;;;;;2.75;0.50;;;;;;;;;;6122378;23;20133;-81
2023/05/08 06:41:48;;;;;;;2.35;0.40;;;;;;;;;;6123738;23;20009;-82
2023/05/08 06:44:14;;;;;;;3.67;0.60;;;;;;;;;;6122819;23;20513;-86
2023/05/08 06:46:40;;;;;;;2.50;0.52;;;;;;;;;;6147546;23;20016;-87
2023/05/08 06:49:07;;;;;;;2.03;0.60;;;;;;;;;;6153063;23;20021;-89
2023/05/08 06:51:34;;;;;;;3.20;0.70;;;;;;;;;;6183978;23;20015;-88
2023/05/08 06:54:00;;;;;;;2.45;0.80;;;;;;;;;;6209544;23;20008;-88
2023/05/08 06:56:26;;;;;;;4.38;1.00;;;;;;;;;;6187049;23;20012;-85
2023/05/08 06:58:52;;;;;;;4.25;1.05;;;;;;;;;;6217620;23;20123;-85
2023/05/08 07:01:18;;;;;;;3.08;0.90;;;;;;;;;;6218703;23;20007;-84
2023/05/08 07:03:45;;;;;;;4.97;0.73;;;;;;;;;;6185765;23;20119;-87
2023/05/08 07:06:11;;;;;;;5.63;0.88;;;;;;;;;;6186279;23;20008;-86
2023/05/08 07:08:37;;;;;;;1.83;0.77;;;;;;;;;;6211687;23;20032;-84
2023/05/08 07:11:03;;;;;;;1.95;0.50;;;;;;;;;;6182964;23;20044;-87
2023/05/08 07:13:29;;;;;;;2.25;0.65;;;;;;;;;;6184557;23;20048;-84
2023/05/08 07:15:56;;;;;;;1.20;0.80;;;;;;;;;;6211985;23;20005;-86
2023/05/08 07:18:22;;;;;;;3.33;0.60;;;;;;;;;;6184872;23;20027;-83
2023/05/08 07:26:00;;;;;;;3.72;0.77;;;;;;;;;;6176337;23;20033;-83
2023/05/08 07:28:37;;;;;;;6.50;0.60;;;;;;;;;;6180800;23;20067;-84
2023/05/08 07:31:06;;;;;;;1.92;0.70;;;;;;;;;;6154551;23;20021;-83
2023/05/08 07:33:43;;;;;;;2.65;0.43;;;;;;;;;;6182496;23;20011;-83
2023/05/08 07:36:09;;;;;;;1.25;0.50;;;;;;;;;;6183064;23;20009;-84
2023/05/08 07:38:35;;;;;;;3.78;0.50;;;;;;;;;;6184424;23;20012;-84
2023/05/08 07:41:03;;;;;;;6.95;1.05;;;;;;;;;;6186119;23;20009;-83
2023/05/08 07:43:29;;;;;;;1.75;0.50;;;;;;;;;;6183343;23;20005;-83
2023/05/08 07:45:56;;;;;;;3.88;1.20;;;;;;;;;;6185036;23;20311;-82
2023/05/08 07:48:22;;;;;;;3.72;0.57;;;;;;;;;;6182629;23;20328;-87
2023/05/08 07:50:51;;;;;;;6.90;0.70;;;;;;;;;;6155499;23;20053;-87
2023/05/08 07:53:17;;;;;;;7.55;0.90;;;;;;;;;;6154025;23;20824;-85
2023/05/08 07:55:43;;;;;;;2.40;0.55;;;;;;;;;;6154356;23;20024;-85
2023/05/08 07:58:09;;;;;;;2.50;0.70;;;;;;;;;;6154761;23;20009;-84
2023/05/08 08:00:35;;;;;;;4.85;0.93;;;;;;;;;;6155485;23;20020;-85
2023/05/08 08:03:01;;;;;;;3.88;0.80;;;;;;;;;;6154834;23;20075;-85
2023/05/08 08:05:27;;;;;;;2.97;0.60;;;;;;;;;;6155572;23;20044;-85
2023/05/08 08:07:53;;;;;;;5.72;0.73;;;;;;;;;;6153336;23;20011;-86
2023/05/08 08:10:19;;;;;;;3.83;0.70;;;;;;;;;;6154745;23;20064;-88
2023/05/08 08:12:45;;;;;;;2.95;0.60;;;;;;;;;;6155552;23;20080;-85
2023/05/08 08:15:11;;;;;;;3.10;1.00;;;;;;;;;;6182856;23;20043;-86
2023/05/08 08:17:37;;;;;;;2.10;0.70;;;;;;;;;;6155609;23;20100;-86
2023/05/08 08:20:03;;;;;;;3.28;0.70;;;;;;;;;;6154894;23;20040;-85
2023/05/08 08:22:30;;;;;;;3.90;0.57;;;;;;;;;;6153897;23;20009;-81
2023/05/08 08:24:56;;;;;;;2.92;0.70;;;;;;;;;;6155637;23;20036;-88
2023/05/08 08:27:22;;;;;;;1.58;0.60;;;;;;;;;;6160823;23;20028;-82
2023/05/08 08:29:48;;;;;;;2.47;0.57;;;;;;;;;;6186154;23;20005;-84
2023/05/08 08:32:14;;;;;;;1.13;0.50;;;;;;;;;;6155556;23;20021;-84
2023/05/08 08:34:40;;;;;;;1.60;0.50;;;;;;;;;;6155492;23;20013;-84
2023/05/08 08:37:06;;;;;;;5.10;0.55;;;;;;;;;;6157051;23;20021;-87
2023/05/08 08:39:35;;;;;;;3.15;0.60;;;;;;;;;;6155311;23;20020;-86
2023/05/08 08:42:01;;;;;;;1.42;0.50;;;;;;;;;;6155573;23;20037;-83
2023/05/08 08:44:27;;;;;;;1.05;0.40;;;;;;;;;;6154991;23;20001;-82
2023/05/08 08:46:54;;;;;;;1.48;0.50;;;;;;;;;;6154652;23;20016;-82
2023/05/08 08:49:24;;;;;;;2.67;0.50;;;;;;;;;;6155361;23;20732;-81
2023/05/08 08:51:52;;;;;;;4.68;0.80;;;;;;;;;;6181728;23;20054;-82
2023/05/08 08:54:23;;;;;;;6.75;0.80;;;;;;;;;;6154695;23;20555;-82
2023/05/08 08:56:50;;;;;;;5.90;0.90;;;;;;;;;;6155177;23;20088;-82
2023/05/08 08:59:17;;;;;;;1.40;0.60;;;;;;;;;;6153963;23;20013;-82
2023/05/08 09:01:47;;;;;;;6.35;0.60;;;;;;;;;;6181510;23;20032;-82
2023/05/08 09:04:13;;;;;;;2.83;0.55;;;;;;;;;;6154410;23;20336;-82
2023/05/08 09:06:44;;;;;;;4.28;0.70;;;;;;;;;;6181206;23;19997;-82
2023/05/08 09:09:11;;;;;;;1.67;0.68;;;;;;;;;;6181788;23;20009;-82
2023/05/08 09:11:38;;;;;;;2.95;0.60;;;;;;;;;;6155366;23;20318;-82
2023/05/08 09:14:04;;;;;;;4.50;0.50;;;;;;;;;;6155037;23;20060;-82
2023/05/08 09:16:30;;;;;;;1.15;0.43;;;;;;;;;;6154682;23;20493;-82
2023/05/08 09:18:56;;;;;;;3.58;0.70;;;;;;;;;;6154774;23;20626;-82
2023/05/08 09:21:22;;;;;;;2.67;0.50;;;;;;;;;;6153907;23;20005;-83
2023/05/08 09:23:58;;;;;;;4.82;0.73;;;;;;;;;;6154508;23;20013;-83
2023/05/08 09:26:34;;;;;;;3.13;0.70;;;;;;;;;;6180451;23;20017;-82
2023/05/08 09:29:14;;;;;;;5.25;0.63;;;;;;;;;;6154744;23;20036;-82
2023/05/08 09:31:42;;;;;;;1.83;0.50;;;;;;;;;;6154547;23;20009;-82
2023/05/08 09:34:09;;;;;;;1.17;0.50;;;;;;;;;;6154096;23;20432;-82
2023/05/08 09:36:35;;;;;;;10.38;0.60;;;;;;;;;;6154238;23;20009;-83
2023/05/08 09:39:01;;;;;;;2.67;0.43;;;;;;;;;;6153733;23;20023;-82
2023/05/08 10:08:07;;;;;;;1.73;0.60;;;;;;;;;;6151422;23;20457;-83
2023/05/08 12:20:59;;;;;;;2.28;0.45;;;;;;;;;;6162193;23;20090;-82
2023/05/08 12:23:29;;;;;;;1.60;0.30;;;;;;;;;;6153034;23;20027;-84
2023/05/08 12:26:18;;;;;;;0.50;0.30;;;;;;;;;;6155000;23;20029;-84
2023/05/08 12:28:46;;;;;;;1.13;0.38;;;;;;;;;;6154522;23;20021;-84
2023/05/08 12:31:19;;;;;;;2.42;0.30;;;;;;;;;;6153991;23;20005;-83
2023/05/08 12:33:48;;;;;;;3.13;0.28;;;;;;;;;;6154188;23;20020;-84
2023/05/08 12:39:56;;;;;;;1.67;0.30;;;;;;;;;;6058699;23;20530;-84
2023/05/08 12:45:09;;;;;;;3.72;0.30;;;;;;;;;;6179738;23;19916;-83
2023/05/08 12:47:37;;;;;;;6.45;0.30;;;;;;;;;;6155056;23;20022;-84
2023/05/08 12:53:29;;;;;;;;;;;;;;;;;;;;;
2023/05/08 12:59:01;;;;;;;0.55;0.20;;;;;;;;;;6151364;23;20043;-85
2023/05/08 13:30:39;;;;;;;1.10;0.20;;;;;;;;;;6183546;23;20071;-85
2023/05/08 13:33:17;;;;;;;0.20;0.10;;;;;;;;;;6180542;23;20023;-85
2023/05/08 13:36:01;;;;;;;0.47;0.20;;;;;;;;;;6178991;23;20509;-86
2023/05/08 13:38:27;;;;;;;0.70;0.20;;;;;;;;;;6182234;23;20012;-88
2023/05/08 13:40:53;;;;;;;0.50;0.10;;;;;;;;;;6183595;23;20039;-88
2023/05/08 13:43:19;;;;;;;0.47;0.20;;;;;;;;;;6185267;23;20012;-88
2023/05/08 13:45:45;;;;;;;1.45;0.30;;;;;;;;;;6186278;23;19996;-88
2023/05/08 13:48:11;;;;;;;1.00;0.22;;;;;;;;;;6183916;23;20013;-89
2023/05/08 13:50:37;;;;;;;0.20;0.10;;;;;;;;;;6184509;23;20015;-90
2023/05/08 13:53:03;;;;;;;0.45;0.20;;;;;;;;;;6183923;23;20013;-88
2023/05/08 13:55:29;;;;;;;1.13;0.25;;;;;;;;;;6184812;23;20476;-89
2023/05/08 13:57:56;;;;;;;0.38;0.20;;;;;;;;;;6183071;23;20021;-87
2023/05/08 14:00:51;;;;;;;0.55;0.20;;;;;;;;;;6179350;23;20036;-83
2023/05/08 14:03:20;;;;;;;0.98;0.20;;;;;;;;;;6146560;23;20402;-86
2023/05/08 14:05:51;;;;;;;0.43;0.20;;;;;;;;;;6122967;23;20013;-85
2023/05/08 14:08:17;;;;;;;0.60;0.20;;;;;;;;;;6124272;23;20029;-88
2023/05/08 14:10:44;;;;;;;3.22;0.30;;;;;;;;;;6128257;23;20029;-88
2023/05/08 14:13:19;;;;;;;0.30;0.20;;;;;;;;;;6149760;23;20354;-89
2023/05/08 14:15:45;;;;;;;1.40;0.50;;;;;;;;;;6150167;23;20024;-85
2023/05/08 14:18:11;;;;;;;1.63;0.30;;;;;;;;;;6127268;23;20009;-84
2023/05/08 14:20:46;;;;;;;1.27;0.30;;;;;;;;;;6124885;23;20017;-88
2023/05/08 14:23:40;;;;;;;0.25;0.15;;;;;;;;;;6127896;23;20441;-85
2023/05/08 14:26:13;;;;;;;2.15;0.30;;;;;;;;;;6123444;23;20017;-84
2023/05/08 14:28:39;;;;;;;0.55;0.20;;;;;;;;;;6175803;23;20333;-84
2023/05/08 14:31:05;;;;;;;3.13;0.50;;;;;;;;;;6179897;23;20036;-86
2023/05/08 14:33:31;;;;;;;1.73;0.30;;;;;;;;;;6181991;23;20017;-84
2023/05/08 14:36:07;;;;;;;1.20;0.30;;;;;;;;;;6182453;23;20027;-88
2023/05/08 14:38:33;;;;;;;1.08;0.20;;;;;;;;;;6182255;23;20009;-85
2023/05/08 14:40:59;;;;;;;2.08;0.20;;;;;;;;;;6180412;23;20024;-83
2023/05/08 14:43:25;;;;;;;0.40;0.20;;;;;;;;;;6180456;23;20005;-84
2023/05/08 14:45:51;;;;;;;1.00;0.50;;;;;;;;;;6179001;23;20591;-84
2023/05/08 14:48:17;;;;;;;3.05;0.20;;;;;;;;;;6179310;23;20037;-83
2023/05/08 14:50:43;;;;;;;0.40;0.20;;;;;;;;;;6182002;23;20017;-85
2023/05/08 14:53:09;;;;;;;0.90;0.20;;;;;;;;;;6178755;23;20020;-83
2023/05/08 15:00:47;;;;;;;4.25;0.40;;;;;;;;;;6154191;23;20092;-84
2023/05/08 15:03:13;;;;;;;3.63;0.40;;;;;;;;;;6150003;23;20005;-83
2023/05/08 15:05:39;;;;;;;2.95;0.50;;;;;;;;;;6152490;23;20016;-83
2023/05/08 15:08:05;;;;;;;1.52;0.50;;;;;;;;;;6152621;23;20084;-85
2023/05/08 15:10:31;;;;;;;1.05;0.30;;;;;;;;;;6150704;23;20125;-85
2023/05/08 15:12:59;;;;;;;1.98;0.20;;;;;;;;;;6148793;23;20024;-82
2023/05/08 15:15:33;;;;;;;1.55;0.30;;;;;;;;;;6151535;23;20006;-84
2023/05/08 15:18:10;;;;;;;2.50;0.32;;;;;;;;;;6151551;23;20013;-83
2023/05/08 15:20:36;;;;;;;1.73;0.40;;;;;;;;;;6150171;23;20429;-83
2023/05/08 15:23:59;;;;;;;;;;;;;;;;;;;;;
2023/05/08 15:50:22;;;;;;;2.78;0.50;;;;;;;;;;6149507;23;20057;-83
2023/05/08 15:52:48;;;;;;;1.80;0.50;;;;;;;;;;6127232;23;20029;-85
2023/05/08 15:55:16;;;;;;;1.75;0.55;;;;;;;;;;6153393;23;20573;-83
2023/05/08 15:57:42;;;;;;;4.68;0.50;;;;;;;;;;6153201;23;20021;-84
2023/05/08 16:00:08;;;;;;;1.65;0.47;;;;;;;;;;6151101;23;20025;-84
2023/05/08 16:02:34;;;;;;;4.35;0.50;;;;;;;;;;6152555;23;20477;-85
2023/05/08 16:05:00;;;;;;;1.73;0.30;;;;;;;;;;6154348;23;20009;-84
2023/05/08 16:07:26;;;;;;;0.75;0.30;;;;;;;;;;6152911;23;20010;-84
2023/05/08 16:09:52;;;;;;;2.45;0.40;;;;;;;;;;6154323;23;20013;-83
2023/05/08 16:12:18;;;;;;;1.30;0.30;;;;;;;;;;6154188;23;20025;-83
2023/05/08 16:14:44;;;;;;;1.55;0.30;;;;;;;;;;6152664;23;20013;-84
2023/05/08 16:17:10;;;;;;;1.30;0.40;;;;;;;;;;6153852;23;20468;-84
2023/05/08 16:19:37;;;;;;;1.98;0.60;;;;;;;;;;6152379;23;20009;-82
2023/05/08 16:22:03;;;;;;;2.38;0.60;;;;;;;;;;6152162;23;20001;-82
2023/05/08 16:24:30;;;;;;;1.77;0.40;;;;;;;;;;6155641;23;20024;-84
2023/05/08 16:26:56;;;;;;;3.30;0.57;;;;;;;;;;6152104;23;20084;-81
2023/05/08 16:29:22;;;;;;;3.92;0.52;;;;;;;;;;6149649;23;20429;-81
2023/05/08 16:31:48;;;;;;;2.45;0.45;;;;;;;;;;6150101;23;20520;-82
2023/05/08 16:34:14;;;;;;;3.95;0.50;;;;;;;;;;6152079;23;20442;-81
2023/05/08 16:36:40;;;;;;;1.67;0.40;;;;;;;;;;6152226;23;20016;-81
2023/05/08 16:39:07;;;;;;;1.25;0.40;;;;;;;;;;6152368;23;20014;-82
2023/05/08 16:41:33;;;;;;;3.65;0.40;;;;;;;;;;6152866;23;20048;-81
2023/05/08 16:43:59;;;;;;;1.85;0.28;;;;;;;;;;6150565;23;20708;-81
2023/05/08 16:46:25;;;;;;;1.38;0.30;;;;;;;;;;6150601;23;20005;-81
2023/05/08 16:48:51;;;;;;;1.20;0.30;;;;;;;;;;6150651;23;20381;-81
2023/05/08 16:51:17;;;;;;;2.55;0.30;;;;;;;;;;6149877;23;20408;-81
2023/05/08 17:05:39;;;;;;;1.77;0.40;;;;;;;;;;6165818;22;20079;-80
2023/05/08 17:08:06;;;;;;;1.65;0.40;;;;;;;;;;6151625;23;20044;-83
2023/05/08 17:10:32;;;;;;;0.95;0.38;;;;;;;;;;6149998;23;20013;-83
2023/05/08 17:12:58;;;;;;;3.45;0.40;;;;;;;;;;6149778;23;20037;-82
2023/05/08 17:15:24;;;;;;;1.65;0.30;;;;;;;;;;6149770;23;20010;-83
2023/05/08 17:17:50;;;;;;;3.30;0.32;;;;;;;;;;6152167;23;20332;-82
2023/05/08 17:20:16;;;;;;;1.90;0.47;;;;;;;;;;6151733;23;20017;-81
2023/05/08 17:22:44;;;;;;;1.00;0.30;;;;;;;;;;6152077;23;20105;-83
2023/05/08 17:25:10;;;;;;;1.40;0.35;;;;;;;;;;6154992;23;20033;-80
2023/05/08 17:27:37;;;;;;;1.58;0.30;;;;;;;;;;6155200;23;20012;-80
2023/05/08 17:30:04;;;;;;;3.28;0.30;;;;;;;;;;6181784;23;20013;-81
2023/05/08 17:32:30;;;;;;;1.70;0.40;;;;;;;;;;6154389;23;20013;-81
2023/05/08 17:34:56;;;;;;;3.47;0.30;;;;;;;;;;6181025;23;20013;-82
2023/05/08 17:37:22;;;;;;;3.25;0.40;;;;;;;;;;6154714;23;20017;-81
2023/05/08 17:39:48;;;;;;;1.85;0.50;;;;;;;;;;6180853;23;20586;-80
2023/05/08 17:42:14;;;;;;;2.88;0.60;;;;;;;;;;6181496;23;20005;-81
2023/05/08 17:44:40;;;;;;;1.45;0.40;;;;;;;;;;6154733;23;20009;-80
